createdAt,value
2022-11-02T00:12:16.636Z,11.56
2022-11-02T00:32:19.057Z,11.11
2022-11-02T00:52:21.487Z,11.03
2022-11-02T01:12:24.177Z,11.11
2022-11-02T01:32:26.597Z,11.28
2022-11-02T01:52:29.336Z,11.43
2022-11-02T02:12:31.818Z,10.90
2022-11-02T02:32:34.205Z,10.51
2022-11-02T02:52:36.891Z,9.95
2022-11-02T03:12:39.613Z,9.74
2022-11-02T03:32:42.027Z,9.42
2022-11-02T03:52:44.586Z,9.32
2022-11-02T04:13:06.586Z,9.79
2022-11-02T04:33:28.286Z,10.03
2022-11-02T04:53:31.139Z,9.63
2022-11-02T05:13:33.785Z,9.55
2022-11-02T05:33:36.204Z,8.77
2022-11-02T05:53:39.646Z,8.36
2022-11-02T06:13:42.093Z,9.02
2022-11-02T06:33:44.550Z,8.85
2022-11-02T06:53:47.073Z,9.36
2022-11-02T07:13:49.488Z,10.27
2022-11-02T07:33:51.962Z,11.01
2022-11-02T07:53:54.569Z,11.93
2022-11-02T08:13:57.219Z,12.45
2022-11-02T08:33:59.912Z,13.03
2022-11-02T08:54:02.449Z,13.64
2022-11-02T09:14:05.291Z,14.45
2022-11-02T09:34:07.744Z,14.50
2022-11-02T09:54:13.354Z,13.98
2022-11-02T10:14:19.585Z,13.67
2022-11-02T10:34:21.999Z,14.66
2022-11-02T10:54:29.435Z,15.29
2022-11-02T11:34:59.592Z,15.31
2022-11-02T11:55:02.558Z,15.32
2022-11-02T12:15:06.999Z,15.63
2022-11-02T12:35:27.814Z,15.09
2022-11-02T12:55:37.272Z,15.49
2022-11-02T13:15:41.145Z,15.54
2022-11-02T13:35:44.409Z,15.55
2022-11-02T13:55:46.930Z,15.19
2022-11-02T14:15:49.503Z,15.55
2022-11-02T14:35:51.933Z,15.71
2022-11-02T14:55:54.468Z,14.96
2022-11-02T15:15:57.483Z,14.00
2022-11-02T15:35:59.905Z,13.49
2022-11-02T15:56:02.507Z,13.12
2022-11-02T16:16:05.110Z,13.08
2022-11-02T16:36:07.644Z,12.81
2022-11-02T16:56:11.666Z,12.73
2022-11-02T17:16:14.383Z,12.11
2022-11-02T17:36:17.232Z,11.63
2022-11-02T17:56:19.905Z,11.42
2022-11-02T18:16:22.603Z,11.35
2022-11-02T18:36:25.149Z,11.33
2022-11-02T18:56:27.792Z,10.93
2022-11-02T19:16:30.526Z,10.81
2022-11-02T19:36:33.027Z,11.18
2022-11-02T19:56:35.693Z,11.22
2022-11-02T20:16:38.445Z,11.55
2022-11-02T20:36:41.378Z,11.73
2022-11-02T20:56:44.260Z,11.35
2022-11-02T21:16:47.031Z,11.19
2022-11-02T21:36:53.252Z,10.33
2022-11-02T21:56:55.893Z,10.05
2022-11-02T22:16:59.067Z,9.58
2022-11-02T22:37:21.716Z,9.30
2022-11-02T22:57:26.683Z,9.19
2022-11-02T23:17:29.177Z,8.72
2022-11-02T23:37:32.106Z,8.11
2022-11-02T23:57:34.653Z,7.31
